createdAt,value
2023-01-30T00:00:02.352Z,0
2023-01-30T00:15:02.790Z,0
2023-01-30T00:30:03.547Z,0
2023-01-30T00:45:02.798Z,0
2023-01-30T01:00:03.094Z,0
2023-01-30T01:15:02.552Z,0
2023-01-30T01:30:02.564Z,0
2023-01-30T01:45:03.410Z,0
2023-01-30T02:00:02.851Z,0
2023-01-30T02:15:02.319Z,0
2023-01-30T02:30:02.852Z,0
2023-01-30T02:45:02.155Z,0
2023-01-30T03:00:02.813Z,0
2023-01-30T03:15:03.057Z,0
2023-01-30T03:30:02.472Z,0
2023-01-30T03:45:02.900Z,0
2023-01-30T04:00:02.324Z,0
2023-01-30T04:15:02.861Z,0
2023-01-30T04:30:02.203Z,0
2023-01-30T04:45:02.866Z,0
2023-01-30T05:00:02.067Z,0
2023-01-30T05:15:02.482Z,0
2023-01-30T05:30:02.943Z,0
2023-01-30T05:45:02.352Z,0
2023-01-30T06:00:02.877Z,0
2023-01-30T06:15:02.241Z,0
2023-01-30T06:30:02.934Z,0
2023-01-30T06:45:02.111Z,0
2023-01-30T07:00:02.533Z,0
2023-01-30T07:15:03.022Z,0
2023-01-30T07:30:02.415Z,1
2023-01-30T07:45:02.912Z,12
2023-01-30T08:00:02.308Z,33
2023-01-30T08:15:02.919Z,35
2023-01-30T08:30:02.184Z,43
2023-01-30T08:45:02.647Z,56
2023-01-30T09:00:03.062Z,76
2023-01-30T09:15:02.475Z,30
2023-01-30T09:30:02.948Z,44
2023-01-30T09:45:02.367Z,54
2023-01-30T10:00:02.956Z,77
2023-01-30T10:15:02.232Z,36
2023-01-30T10:30:02.870Z,74
2023-01-30T10:45:02.121Z,108
2023-01-30T11:00:02.557Z,74
2023-01-30T11:15:02.993Z,55
2023-01-30T11:30:02.412Z,81
2023-01-30T11:45:16.546Z,133
2023-01-30T12:00:02.305Z,46
2023-01-30T12:15:02.952Z,3
2023-01-30T12:30:02.166Z,58
2023-01-30T12:45:02.594Z,164
2023-01-30T13:00:03.069Z,153
2023-01-30T13:15:02.477Z,242
2023-01-30T13:30:03.043Z,87
2023-01-30T13:45:02.373Z,109
2023-01-30T14:00:03.007Z,174
2023-01-30T14:15:02.254Z,43
2023-01-30T14:30:02.685Z,35
2023-01-30T14:45:03.158Z,27
2023-01-30T15:00:15.667Z,20
2023-01-30T15:15:03.036Z,28
2023-01-30T15:30:02.429Z,34
2023-01-30T15:45:03.029Z,14
2023-01-30T16:00:02.314Z,3
2023-01-30T16:15:17.493Z,0
2023-01-30T16:30:03.200Z,0
2023-01-30T16:45:02.635Z,0
2023-01-30T17:00:03.064Z,0
2023-01-30T17:15:02.482Z,0
2023-01-30T17:30:03.058Z,0
2023-01-30T17:45:02.395Z,0
2023-01-30T18:00:03.032Z,0
2023-01-30T18:15:02.284Z,0
2023-01-30T18:30:02.729Z,0
2023-01-30T18:45:03.154Z,0
2023-01-30T19:00:02.587Z,0
2023-01-30T19:15:03.090Z,0
2023-01-30T19:30:02.477Z,0
2023-01-30T19:45:03.109Z,0
2023-01-30T20:00:02.344Z,0
2023-01-30T20:15:02.801Z,0
2023-01-30T20:30:02.215Z,0
2023-01-30T20:45:02.638Z,0
2023-01-30T21:00:03.240Z,0
2023-01-30T21:15:02.533Z,0
2023-01-30T21:30:03.125Z,0
2023-01-30T21:45:02.397Z,0
2023-01-30T22:00:02.861Z,0
2023-01-30T22:15:02.288Z,0
2023-01-30T22:30:02.707Z,0
2023-01-30T22:45:03.172Z,0
2023-01-30T23:00:02.585Z,0
2023-01-30T23:30:02.450Z,0
2023-01-30T23:45:02.891Z,0
